Stonewall, North Carolina
Current Conditions -  °F | °C
As of 7:54 AM on Tuesday 21 Oct 2014 (Local Time) from KEWN Reporting Station
Broken Clouds Broken Clouds  
Wind Chill: 55°   Ceiling: 11000
Heat Index: 55°   Visibility: 10mi
Dew Point: 52°   Wind: 0mph
Humidity: 89%   Direction: NA
Pressure: 29.96"   Gusts: NA
Location:  35.14°N, 76.75°W
Report Text: KEWN 211154Z 00000KT 10SM BKN110 13/11 A2996 RMK AO2 SLP143 T01280111 10139 20122 53003
Loading
Personal Weather Stations






























Interactive Weather Map
Tropical Storm Tracking
New forecast layout! Learn more

10-Day Weather Forecast

Advertisements
Track Severe Weather on mobile